Terminal Aerodrome Forecast
Issued by NWS Sterling, VA

Current Version | Previous Version | Graphics & Text | Print | Product List | Glossary On
Versions: 1 2 3 4 5 6 7 8 9 10 11 12 13 14 15 16 17 18 19 20 21 22 23 24 25
363
FTUS41 KLWX 140859 AAA
TAFIAD
TAF AMD
KIAD 140859Z 1409/1512 35006KT P6SM OVC005
     FM141500 VRB03KT P6SM BKN015
     FM141700 VRB03KT P6SM BKN025
     FM141800 VRB03KT P6SM SCT025
     FM150600 VRB03KT 3SM BR SCT250
     FM150900 19004KT 6SM BR SCT250=

USA.gov is the U.S. government's official web portal to all federal, state and local government web resources and services.